Time;durP1;ratioP1;P1;durP2;ratioP2;P2;SDS_P1;SDS_P2;PMS_P1;PMS_P2;Temp;Humidity;BMP_temperature;BMP_pressure;BME280_temperature;BME280_humidity;BME280_pressure;Samples;Min_cycle;Max_cycle;Signal;HPM_P1;HPM_P2
2023/03/13 06:09:45;;;;;;;24.20;9.80;;;6.30;99.90;;;;;;6326189;22;20268;-92
2023/03/13 06:12:13;;;;;;;22.17;9.90;;;6.40;99.90;;;;;;6341065;22;20196;-92
2023/03/13 06:14:39;;;;;;;31.20;10.47;;;6.40;99.90;;;;;;6341059;22;20179;-92
2023/03/13 06:17:06;;;;;;;22.27;9.67;;;6.40;99.90;;;;;;6341808;22;20628;-91
2023/03/13 06:19:33;;;;;;;20.67;10.20;;;6.50;1.00;;;;;;6341101;22;20167;-92
2023/03/13 06:22:00;;;;;;;17.37;9.27;;;6.60;1.00;;;;;;6340850;22;20162;-92
2023/03/13 06:24:26;;;;;;;20.50;9.20;;;6.60;1.00;;;;;;6341056;22;20167;-92
2023/03/13 06:26:55;;;;;;;42.60;18.87;;;6.70;1.00;;;;;;6340682;22;20170;-92
2023/03/13 06:29:23;;;;;;;33.37;16.00;;;6.80;1.00;;;;;;6340684;22;20166;-92
2023/03/13 06:31:50;;;;;;;28.87;14.10;;;6.80;1.00;;;;;;6340860;22;20182;-91
2023/03/13 06:34:17;;;;;;;22.17;11.47;;;6.90;99.90;;;;;;6340403;22;20170;-92
2023/03/13 06:36:44;;;;;;;28.83;12.17;;;7.00;99.90;;;;;;6340805;22;20172;-92
2023/03/13 06:39:12;;;;;;;32.20;14.17;;;7.00;99.90;;;;;;6340712;22;20166;-91
2023/03/13 06:41:39;;;;;;;26.30;13.20;;;7.00;99.90;;;;;;6340763;22;20167;-92
2023/03/13 06:44:07;;;;;;;50.07;25.07;;;7.10;1.00;;;;;;6340699;22;20166;-92
2023/03/13 06:46:33;;;;;;;52.97;25.93;;;7.10;1.00;;;;;;6340277;22;20176;-91
2023/03/13 06:49:03;;;;;;;41.60;22.53;;;7.20;1.00;;;;;;6340828;22;20177;-91
2023/03/13 06:51:30;;;;;;;30.40;16.90;;;7.30;1.00;;;;;;6340427;22;20186;-92
2023/03/13 06:53:57;;;;;;;63.30;29.17;;;7.40;99.90;;;;;;6340361;22;20170;-92
2023/03/13 06:56:24;;;;;;;34.53;15.77;;;7.60;99.90;;;;;;6340598;22;20170;-92
2023/03/13 06:58:50;;;;;;;55.87;25.87;;;7.60;99.90;;;;;;6340090;22;20885;-92
2023/03/13 07:01:19;;;;;;;42.67;18.13;;;7.60;99.90;;;;;;6340549;22;20494;-92
2023/03/13 07:03:47;;;;;;;32.57;16.37;;;7.70;99.90;;;;;;6340468;22;20168;-92
2023/03/13 07:06:14;;;;;;;42.50;16.43;;;7.80;99.90;;;;;;6340494;22;20166;-91
2023/03/13 07:08:42;;;;;;;29.13;11.73;;;7.90;99.90;;;;;;6340507;22;20199;-92
2023/03/13 07:11:11;;;;;;;25.67;10.97;;;8.00;99.90;;;;;;6339942;22;20207;-92
2023/03/13 07:13:38;;;;;;;29.03;13.20;;;8.10;99.90;;;;;;6340164;22;20246;-92
2023/03/13 07:16:07;;;;;;;21.47;9.20;;;8.10;99.90;;;;;;6340553;22;20168;-92
2023/03/13 07:18:35;;;;;;;29.27;12.07;;;8.10;99.90;;;;;;6340312;22;20170;-92
2023/03/13 07:21:04;;;;;;;23.67;10.90;;;8.10;99.90;;;;;;6340184;22;20251;-92
2023/03/13 07:23:33;;;;;;;22.83;11.10;;;8.10;99.90;;;;;;6340066;22;20178;-92
2023/03/13 07:26:01;;;;;;;36.13;16.33;;;8.20;99.90;;;;;;6340173;22;20181;-92
2023/03/13 07:28:29;;;;;;;32.73;16.27;;;8.30;99.90;;;;;;6339823;22;20171;-92
2023/03/13 07:31:03;;;;;;;31.10;13.23;;;8.30;99.90;;;;;;6340483;22;20167;-92
2023/03/13 07:33:30;;;;;;;25.00;11.43;;;8.30;99.90;;;;;;6340351;22;20180;-91
2023/03/13 07:35:58;;;;;;;18.83;8.90;;;8.30;99.90;;;;;;6340240;22;20173;-92
2023/03/13 07:38:25;;;;;;;20.17;8.63;;;8.40;99.90;;;;;;6340541;22;20167;-92
2023/03/13 07:40:53;;;;;;;23.27;9.87;;;8.40;99.90;;;;;;6340259;22;20168;-93
2023/03/13 07:43:20;;;;;;;24.77;12.33;;;8.40;99.90;;;;;;6340414;22;20162;-92
2023/03/13 07:45:51;;;;;;;23.93;11.73;;;8.50;99.90;;;;;;6340430;22;20193;-93
2023/03/13 07:48:18;;;;;;;44.87;29.97;;;8.60;99.90;;;;;;6340291;22;20170;-92
2023/03/13 07:50:45;;;;;;;22.47;9.40;;;8.60;99.90;;;;;;6340444;22;20167;-92
2023/03/13 07:53:19;;;;;;;31.87;15.23;;;8.60;99.90;;;;;;6340059;22;20641;-92
2023/03/13 07:55:52;;;;;;;23.37;9.33;;;8.70;99.90;;;;;;6339961;22;20597;-94
2023/03/13 07:58:19;;;;;;;18.97;8.20;;;8.70;99.90;;;;;;6340415;22;20162;-92
2023/03/13 08:00:45;;;;;;;23.47;14.67;;;8.70;84.50;;;;;;6340182;22;20168;-92
2023/03/13 08:03:13;;;;;;;42.33;14.67;;;8.70;99.90;;;;;;6340168;22;20541;-93
2023/03/13 08:05:40;;;;;;;26.00;8.63;;;8.70;99.90;;;;;;6339848;22;20618;-92
2023/03/13 08:08:07;;;;;;;29.20;9.97;;;8.80;99.90;;;;;;6340347;22;20220;-92
2023/03/13 08:10:35;;;;;;;42.53;24.53;;;8.80;99.90;;;;;;6340052;22;20195;-93
2023/03/13 08:13:02;;;;;;;28.27;13.13;;;9.00;99.90;;;;;;6340103;22;20517;-93
2023/03/13 08:15:29;;;;;;;29.10;10.90;;;9.20;99.90;;;;;;6340430;22;20549;-93
2023/03/13 08:17:56;;;;;;;35.50;17.73;;;9.30;99.90;;;;;;6339992;22;20171;-93
2023/03/13 08:20:23;;;;;;;43.73;26.97;;;9.40;1.00;;;;;;6339909;22;20173;-93
2023/03/13 08:22:50;;;;;;;30.73;13.07;;;9.50;1.00;;;;;;6340844;22;20638;-93
2023/03/13 08:25:17;;;;;;;19.63;9.30;;;9.70;1.00;;;;;;6342263;22;20168;-93
2023/03/13 08:27:45;;;;;;;20.57;8.23;;;9.80;1.00;;;;;;6342048;22;20169;-93
2023/03/13 08:30:13;;;;;;;24.53;9.17;;;9.80;1.00;;;;;;6342077;22;20619;-94
2023/03/13 08:32:40;;;;;;;24.83;8.97;;;9.90;1.00;;;;;;6341597;22;20199;-93
2023/03/13 08:35:08;;;;;;;25.33;8.03;;;9.90;1.00;;;;;;6342165;22;20253;-93
2023/03/13 08:37:34;;;;;;;18.93;7.03;;;10.00;1.00;;;;;;6341810;22;20180;-92
2023/03/13 08:40:08;;;;;;;22.77;11.63;;;10.10;99.90;;;;;;6342159;22;20167;-93
2023/03/13 08:42:36;;;;;;;18.03;7.07;;;10.10;99.90;;;;;;6341846;22;20160;-93
2023/03/13 08:45:05;;;;;;;17.43;9.00;;;10.10;99.90;;;;;;6342027;22;20167;-93
2023/03/13 08:47:32;;;;;;;20.33;9.27;;;10.10;15.70;;;;;;6341842;22;20175;-93
2023/03/13 08:49:59;;;;;;;25.63;8.23;;;10.10;1.00;;;;;;6342138;22;20222;-93
2023/03/13 08:52:26;;;;;;;24.30;6.30;;;10.00;1.00;;;;;;6341996;22;20276;-94
2023/03/13 08:54:53;;;;;;;20.50;7.83;;;10.00;43.40;;;;;;6341420;22;20192;-93
2023/03/13 08:57:20;;;;;;;16.83;7.10;;;10.00;1.00;;;;;;6341969;22;20510;-92
2023/03/13 08:59:47;;;;;;;16.53;6.27;;;10.00;99.90;;;;;;6341943;22;20257;-94
2023/03/13 09:02:18;;;;;;;15.10;6.30;;;10.00;99.90;;;;;;6341402;22;20166;-94
2023/03/13 09:04:46;;;;;;;17.10;7.03;;;10.10;1.00;;;;;;6341776;22;20207;-93
2023/03/13 09:07:12;;;;;;;19.50;7.30;;;10.10;1.00;;;;;;6341878;22;20173;-93
2023/03/13 09:09:39;;;;;;;19.60;5.93;;;10.00;1.00;;;;;;6341567;22;20273;-94
2023/03/13 09:12:07;;;;;;;16.60;6.87;;;10.00;1.00;;;;;;6341752;22;20190;-94
2023/03/13 09:14:33;;;;;;;19.47;6.27;;;10.00;1.00;;;;;;6341895;22;20188;-93
2023/03/13 09:17:00;;;;;;;14.17;6.53;;;9.90;1.00;;;;;;6341944;22;20173;-93
2023/03/13 09:19:28;;;;;;;35.00;17.87;;;9.80;1.00;;;;;;6341866;22;20201;-94
2023/03/13 09:21:55;;;;;;;20.17;6.80;;;9.80;46.80;;;;;;6341807;22;20247;-94
2023/03/13 09:24:22;;;;;;;17.33;7.43;;;9.70;72.30;;;;;;6341732;22;20177;-95
2023/03/13 09:26:49;;;;;;;18.13;5.73;;;9.60;99.90;;;;;;6341729;22;20256;-94
2023/03/13 09:29:16;;;;;;;24.40;7.33;;;9.60;99.90;;;;;;6341968;22;20173;-94
2023/03/13 09:31:43;;;;;;;22.43;10.60;;;9.50;99.90;;;;;;6341928;22;20268;-93
2023/03/13 09:34:10;;;;;;;24.97;8.50;;;9.40;99.90;;;;;;6341106;22;20271;-94
2023/03/13 09:36:38;;;;;;;26.77;9.57;;;9.40;1.00;;;;;;6341102;22;20224;-94
2023/03/13 09:39:05;;;;;;;18.73;7.10;;;9.30;1.00;;;;;;6341804;22;20169;-93
2023/03/13 09:41:36;;;;;;;52.10;23.63;;;9.40;1.00;;;;;;6341573;22;20173;-92
2023/03/13 09:44:07;;;;;;;29.13;11.33;;;9.30;1.00;;;;;;6341089;22;20153;-92
2023/03/13 09:46:39;;;;;;;41.77;17.13;;;9.40;1.00;;;;;;6341132;22;20164;-92
2023/03/13 09:49:13;;;;;;;43.23;14.90;;;9.50;1.00;;;;;;6341456;22;20175;-93
2023/03/13 09:51:46;;;;;;;28.47;9.97;;;9.50;1.00;;;;;;6341374;22;20226;-93
2023/03/13 09:54:23;;;;;;;27.10;8.90;;;9.50;1.00;;;;;;6341363;22;20185;-93
2023/03/13 09:56:54;;;;;;;23.47;8.77;;;9.50;1.00;;;;;;6341645;22;20240;-93
2023/03/13 09:59:28;;;;;;;18.50;7.07;;;9.50;1.00;;;;;;6341544;22;20240;-93
2023/03/13 10:01:57;;;;;;;20.37;6.87;;;9.50;1.00;;;;;;6341412;22;20155;-92
2023/03/13 10:04:35;;;;;;;24.43;9.90;;;9.40;1.00;;;;;;6341786;22;20509;-92
2023/03/13 10:07:04;;;;;;;27.13;12.47;;;9.30;99.90;;;;;;6340857;22;20157;-93
2023/03/13 10:09:32;;;;;;;31.50;15.37;;;9.30;99.90;;;;;;6341036;22;20200;-92
2023/03/13 10:12:11;;;;;;;20.33;7.67;;;9.40;99.90;;;;;;6341208;22;20172;-93
2023/03/13 10:14:44;;;;;;;18.10;8.23;;;9.40;99.90;;;;;;6341386;22;20160;-92
2023/03/13 10:17:19;;;;;;;21.60;8.43;;;9.50;99.90;;;;;;6341325;22;20158;-92
2023/03/13 10:19:54;;;;;;;24.20;10.13;;;9.50;99.90;;;;;;6341098;22;20152;-92
2023/03/13 10:22:26;;;;;;;14.97;6.43;;;9.60;99.90;;;;;;6341415;22;20160;-92
2023/03/13 10:24:58;;;;;;;19.40;9.10;;;9.60;1.00;;;;;;6341052;22;20616;-92
2023/03/13 10:27:25;;;;;;;23.53;11.97;;;9.70;1.00;;;;;;6341262;22;20154;-93
2023/03/13 10:29:51;;;;;;;21.00;8.93;;;9.70;1.00;;;;;;6341302;22;20178;-92
2023/03/13 10:32:19;;;;;;;15.80;8.00;;;9.70;1.00;;;;;;6340864;22;20626;-93
2023/03/13 10:34:52;;;;;;;19.07;9.63;;;9.70;1.00;;;;;;6341237;22;20191;-92
2023/03/13 10:37:23;;;;;;;26.03;12.00;;;9.70;1.00;;;;;;6341427;22;20154;-92
2023/03/13 10:39:50;;;;;;;23.40;10.90;;;9.60;1.00;;;;;;6341281;22;20162;-92
2023/03/13 10:42:23;;;;;;;21.73;9.90;;;9.60;40.10;;;;;;6340624;22;20179;-92
2023/03/13 10:44:56;;;;;;;33.30;14.60;;;9.70;99.90;;;;;;6340619;22;20591;-92
2023/03/13 10:47:23;;;;;;;21.47;11.93;;;9.70;99.90;;;;;;6341444;22;20161;-92
2023/03/13 10:49:52;;;;;;;23.00;10.40;;;9.70;61.50;;;;;;6341280;22;20254;-92
2023/03/13 10:52:34;;;;;;;14.30;6.33;;;9.70;92.80;;;;;;6340605;22;20714;-92
2023/03/13 10:55:04;;;;;;;13.30;6.27;;;9.70;99.90;;;;;;6341020;22;20158;-92
2023/03/13 10:57:32;;;;;;;12.20;6.00;;;9.60;99.90;;;;;;6340902;22;20196;-92
2023/03/13 10:59:59;;;;;;;12.77;6.70;;;9.70;1.00;;;;;;6341118;22;20168;-92
2023/03/13 11:02:32;;;;;;;11.77;4.53;;;9.70;1.00;;;;;;6341022;22;20194;-92
2023/03/13 11:05:19;;;;;;;17.80;6.77;;;9.80;1.00;;;;;;6340968;22;20279;-92
2023/03/13 11:07:48;;;;;;;15.90;7.20;;;9.90;1.00;;;;;;6340385;22;20249;-92
2023/03/13 11:10:18;;;;;;;8.47;5.20;;;9.90;1.00;;;;;;6340917;22;20196;-92
2023/03/13 11:12:46;;;;;;;10.07;5.63;;;10.00;1.00;;;;;;6340950;22;20184;-91
2023/03/13 11:15:17;;;;;;;16.60;7.87;;;10.00;1.00;;;;;;6340360;22;20636;-93
2023/03/13 11:17:47;;;;;;;13.60;5.67;;;10.10;1.00;;;;;;6340513;22;20164;-92
2023/03/13 11:20:23;;;;;;;12.13;5.27;;;10.20;1.00;;;;;;6340736;22;20234;-92
2023/03/13 11:22:56;;;;;;;10.33;5.33;;;10.20;1.00;;;;;;6341343;22;20150;-92
2023/03/13 11:25:30;;;;;;;8.57;4.60;;;10.30;1.00;;;;;;6340838;22;20155;-92
2023/03/13 11:28:19;;;;;;;6.10;3.40;;;10.30;99.90;;;;;;6340225;22;20169;-91
2023/03/13 11:30:56;;;;;;;7.33;4.10;;;10.40;1.00;;;;;;6340583;22;20151;-91
2023/03/13 11:33:29;;;;;;;10.70;5.90;;;10.40;1.00;;;;;;6340591;22;20179;-91
2023/03/13 11:36:02;;;;;;;8.97;4.20;;;10.40;99.90;;;;;;6340822;22;20226;-92
2023/03/13 11:38:35;;;;;;;9.90;6.40;;;10.40;99.90;;;;;;6340626;22;20152;-92
2023/03/13 11:41:15;;;;;;;16.30;9.83;;;10.50;1.00;;;;;;6340190;22;20143;-92
2023/03/13 11:43:55;;;;;;;18.53;10.87;;;10.50;1.00;;;;;;6340245;22;20148;-92
2023/03/13 11:46:44;;;;;;;16.70;11.07;;;10.50;99.90;;;;;;6340698;22;20151;-93
2023/03/13 11:49:22;;;;;;;12.27;8.00;;;10.50;99.90;;;;;;6340298;22;20156;-91
2023/03/13 11:52:02;;;;;;;8.17;5.77;;;10.50;99.90;;;;;;6340677;22;20151;-91
2023/03/13 11:54:49;;;;;;;10.53;6.10;;;10.50;1.00;;;;;;6340221;22;20209;-92
2023/03/13 11:57:28;;;;;;;14.00;7.00;;;10.40;1.00;;;;;;6341611;22;20157;-92
2023/03/13 12:00:14;;;;;;;8.80;5.93;;;10.50;1.00;;;;;;6344047;22;20178;-91
2023/03/13 12:02:48;;;;;;;7.33;4.97;;;10.60;1.00;;;;;;6343765;22;20152;-92
2023/03/13 12:05:18;;;;;;;10.50;5.60;;;10.70;1.00;;;;;;6343277;22;20234;-92
2023/03/13 12:07:50;;;;;;;9.40;6.53;;;10.80;1.00;;;;;;6344037;22;20154;-91
2023/03/13 12:10:23;;;;;;;9.20;4.90;;;10.80;1.00;;;;;;6343495;22;20201;-92
2023/03/13 12:12:53;;;;;;;9.03;5.13;;;10.90;1.00;;;;;;6343800;22;20210;-92
2023/03/13 12:15:25;;;;;;;8.63;5.30;;;11.00;1.00;;;;;;6344008;22;20159;-92
2023/03/13 12:17:58;;;;;;;11.67;5.27;;;11.10;1.00;;;;;;6343225;22;20155;-91
2023/03/13 12:20:28;;;;;;;7.47;4.43;;;11.20;99.90;;;;;;6343308;22;20156;-92
2023/03/13 12:23:04;;;;;;;9.87;6.40;;;11.30;1.00;;;;;;6343591;22;20167;-91
2023/03/13 12:25:37;;;;;;;10.60;6.80;;;11.40;99.90;;;;;;6343726;22;20161;-92
2023/03/13 12:28:22;;;;;;;8.60;6.20;;;11.50;99.90;;;;;;6344354;22;20157;-92
2023/03/13 12:30:56;;;;;;;7.30;4.63;;;11.60;1.00;;;;;;6343255;22;20165;-91
2023/03/13 12:33:26;;;;;;;7.27;4.33;;;11.70;1.00;;;;;;6343658;22;20182;-92
2023/03/13 12:36:01;;;;;;;8.07;3.93;;;11.80;1.00;;;;;;6343681;22;20162;-92
2023/03/13 12:38:34;;;;;;;8.87;4.70;;;11.70;1.00;;;;;;6343804;22;20156;-92
2023/03/13 12:41:13;;;;;;;8.40;4.70;;;11.80;1.00;;;;;;6343605;22;20237;-91
2023/03/13 12:43:42;;;;;;;8.03;4.90;;;11.80;1.00;;;;;;6343565;22;20156;-92
2023/03/13 12:46:35;;;;;;;10.97;7.40;;;12.00;1.00;;;;;;6343607;22;20173;-93
2023/03/13 12:49:38;;;;;;;12.90;7.93;;;12.10;1.00;;;;;;6344011;22;20158;-93
2023/03/13 12:52:28;;;;;;;19.50;13.80;;;12.10;99.90;;;;;;6343488;22;20149;-93
2023/03/13 12:55:23;;;;;;;8.53;6.43;;;12.10;99.90;;;;;;6217684;23;20243;-93
2023/03/13 12:58:10;;;;;;;9.80;5.87;;;12.00;99.90;;;;;;6218047;23;20177;-94
2023/03/13 13:00:40;;;;;;;10.73;6.07;;;11.90;99.90;;;;;;6218484;23;20173;-94
2023/03/13 13:03:18;;;;;;;11.73;6.17;;;11.90;99.90;;;;;;6218313;23;20160;-94
2023/03/13 13:06:09;;;;;;;13.30;7.50;;;11.80;1.00;;;;;;6218119;23;20175;-94
2023/03/13 13:08:41;;;;;;;13.33;7.13;;;11.90;1.00;;;;;;6216844;23;20156;-94
2023/03/13 13:11:45;;;;;;;17.17;9.23;;;12.00;99.90;;;;;;6216876;23;20158;-94
2023/03/13 13:14:54;;;;;;;14.97;7.67;;;12.00;99.90;;;;;;6216389;23;20193;-94
2023/03/13 13:17:31;;;;;;;13.93;6.70;;;12.10;1.00;;;;;;6216073;23;20167;-94
2023/03/13 13:19:59;;;;;;;9.23;6.20;;;12.30;99.90;;;;;;6216603;23;20184;-94
2023/03/13 13:22:50;;;;;;;8.33;5.47;;;12.50;99.90;;;;;;6216378;23;20170;-93
2023/03/13 13:25:29;;;;;;;8.03;5.20;;;12.70;99.90;;;;;;6216336;23;20173;-94
2023/03/13 13:28:10;;;;;;;8.77;5.60;;;13.20;99.90;;;;;;6216422;23;20155;-94
2023/03/13 13:30:37;;;;;;;10.63;7.20;;;13.60;1.00;;;;;;6216161;23;20505;-94
2023/03/13 13:33:34;;;;;;;14.27;7.37;;;13.80;1.00;;;;;;6329577;22;20648;-94
2023/03/13 13:36:30;;;;;;;6.77;4.97;;;13.90;1.00;;;;;;6341684;22;20673;-96
2023/03/13 13:38:58;;;;;;;7.40;4.93;;;13.90;1.00;;;;;;6341525;22;20173;-94
2023/03/13 13:41:35;;;;;;;8.57;6.20;;;13.90;99.90;;;;;;6341785;22;20175;-95
2023/03/13 13:44:28;;;;;;;8.43;4.87;;;13.80;99.90;;;;;;6341867;22;20153;-95
2023/03/13 13:46:58;;;;;;;8.47;5.13;;;13.80;1.00;;;;;;6341324;22;20160;-94
2023/03/13 13:49:31;;;;;;;9.97;5.80;;;13.80;99.90;;;;;;6341339;22;20630;-95
2023/03/13 13:52:18;;;;;;;9.47;4.27;;;13.80;99.90;;;;;;6341585;22;20161;-95
2023/03/13 13:54:57;;;;;;;9.53;5.23;;;13.80;99.90;;;;;;6341079;22;20670;-94
2023/03/13 13:57:26;;;;;;;11.07;5.13;;;13.90;99.90;;;;;;6341299;22;20598;-94
2023/03/13 13:59:56;;;;;;;9.87;5.07;;;14.00;99.90;;;;;;6341498;22;20377;-95
2023/03/13 14:02:25;;;;;;;10.10;6.13;;;14.10;99.90;;;;;;6341269;22;20167;-96
2023/03/13 14:05:02;;;;;;;12.40;7.13;;;14.30;1.00;;;;;;6341828;22;20166;-95
2023/03/13 14:07:42;;;;;;;9.17;4.50;;;14.30;1.00;;;;;;6341494;22;20157;-95
2023/03/13 14:10:30;;;;;;;7.57;4.87;;;14.30;1.00;;;;;;6341170;22;20214;-94
2023/03/13 14:12:58;;;;;;;8.43;4.20;;;14.30;1.00;;;;;;6341042;22;20625;-95
2023/03/13 14:15:27;;;;;;;6.70;3.93;;;14.20;1.00;;;;;;6340799;22;20749;-95
2023/03/13 14:17:59;;;;;;;6.83;4.00;;;14.10;1.00;;;;;;6341494;22;20174;-94
2023/03/13 14:20:30;;;;;;;4.70;2.80;;;13.90;1.00;;;;;;6341413;22;20161;-95
2023/03/13 14:23:00;;;;;;;5.13;2.80;;;13.70;1.00;;;;;;6341189;22;20153;-95
2023/03/13 14:25:28;;;;;;;6.70;3.73;;;13.60;99.90;;;;;;6341193;22;20166;-95
2023/03/13 14:27:55;;;;;;;7.30;4.00;;;13.50;99.90;;;;;;6341190;22;20167;-95
2023/03/13 14:30:23;;;;;;;5.73;3.30;;;13.50;99.90;;;;;;6341483;22;20181;-95
2023/03/13 14:32:52;;;;;;;8.07;5.07;;;13.40;1.00;;;;;;6341283;22;20170;-94
2023/03/13 14:35:21;;;;;;;6.03;3.00;;;13.40;1.00;;;;;;6341070;22;20189;-95
2023/03/13 14:37:50;;;;;;;7.07;3.90;;;13.40;1.00;;;;;;6341120;22;20182;-96
2023/03/13 14:40:26;;;;;;;5.27;2.93;;;13.30;85.80;;;;;;6341044;22;20475;-95
2023/03/13 14:42:56;;;;;;;7.30;4.60;;;13.40;99.90;;;;;;6341477;22;20160;-95
2023/03/13 14:45:27;;;;;;;5.67;3.50;;;13.40;99.90;;;;;;6341136;22;20168;-95
2023/03/13 14:47:55;;;;;;;6.43;3.30;;;13.40;99.90;;;;;;6341117;22;20157;-95
2023/03/13 14:50:24;;;;;;;3.43;2.50;;;13.40;1.00;;;;;;6341074;22;20197;-94
2023/03/13 14:52:55;;;;;;;5.80;3.00;;;13.40;1.00;;;;;;6341261;22;20164;-95
2023/03/13 14:55:33;;;;;;;4.93;3.17;;;13.40;1.00;;;;;;6340981;22;20175;-94
2023/03/13 14:58:03;;;;;;;4.40;2.87;;;13.30;55.90;;;;;;6340937;22;20175;-95
2023/03/13 15:00:37;;;;;;;5.57;3.37;;;13.40;35.00;;;;;;6341017;22;20189;-95
2023/03/13 15:03:27;;;;;;;8.90;4.50;;;13.50;99.90;;;;;;6341244;22;20157;-95
2023/03/13 15:06:07;;;;;;;6.33;3.67;;;13.60;99.90;;;;;;6341301;22;20157;-94
2023/03/13 15:08:36;;;;;;;7.73;4.40;;;13.70;1.00;;;;;;6340995;22;20163;-95
2023/03/13 15:11:16;;;;;;;6.33;4.03;;;13.90;1.00;;;;;;6341321;22;20176;-95
2023/03/13 15:13:43;;;;;;;4.77;3.33;;;14.00;99.90;;;;;;6340430;22;20158;-95
2023/03/13 15:16:14;;;;;;;6.57;4.53;;;14.00;99.90;;;;;;6340815;22;20176;-93
2023/03/13 15:18:41;;;;;;;6.23;4.10;;;14.00;99.90;;;;;;6342423;22;20275;-93
2023/03/13 15:21:26;;;;;;;7.20;4.20;;;14.10;99.90;;;;;;6341209;22;20145;-93
2023/03/13 15:23:58;;;;;;;6.33;4.60;;;14.10;99.90;;;;;;6344126;22;20170;-94
2023/03/13 15:26:25;;;;;;;9.00;6.47;;;14.20;1.00;;;;;;6342760;22;20177;-94
2023/03/13 15:28:52;;;;;;;11.67;7.20;;;14.20;1.00;;;;;;6344881;22;20217;-94
2023/03/13 15:31:21;;;;;;;7.60;4.40;;;14.30;1.00;;;;;;6343259;22;20176;-91
2023/03/13 15:33:53;;;;;;;8.17;4.97;;;14.40;1.00;;;;;;6340186;22;20177;-93
2023/03/13 15:36:19;;;;;;;9.60;5.00;;;14.50;1.00;;;;;;6340559;22;20151;-93
2023/03/13 15:38:46;;;;;;;7.67;3.50;;;14.40;99.90;;;;;;6340570;22;20178;-91
2023/03/13 15:41:15;;;;;;;6.95;4.10;;;14.30;99.90;;;;;;6340798;22;20180;-94
2023/03/13 15:43:41;;;;;;;6.77;4.40;;;14.20;99.90;;;;;;6340519;22;20179;-93
2023/03/13 15:46:12;;;;;;;9.00;3.33;;;13.90;1.00;;;;;;6340741;22;20174;-93
2023/03/13 15:48:40;;;;;;;7.83;3.17;;;13.80;1.00;;;;;;6340692;22;20154;-94
2023/03/13 15:51:10;;;;;;;7.83;4.90;;;13.70;1.00;;;;;;6340845;22;20197;-91
2023/03/13 15:53:37;;;;;;;7.60;4.53;;;13.50;1.00;;;;;;6340935;22;20154;-95
2023/03/13 15:56:14;;;;;;;7.83;4.47;;;13.40;8.90;;;;;;6340191;22;20197;-93
2023/03/13 15:58:42;;;;;;;5.70;3.50;;;13.30;30.20;;;;;;6339268;22;20161;-92
2023/03/13 16:01:10;;;;;;;7.67;3.80;;;13.30;99.90;;;;;;6338960;22;20580;-92
2023/03/13 16:03:38;;;;;;;5.90;3.77;;;13.20;99.90;;;;;;6338676;22;20173;-89
2023/03/13 16:06:14;;;;;;;7.73;4.70;;;13.10;1.00;;;;;;6339111;22;20172;-91
2023/03/13 16:08:41;;;;;;;5.63;3.70;;;13.10;1.00;;;;;;6340128;22;20159;-93
2023/03/13 16:11:07;;;;;;;5.97;3.90;;;13.00;1.00;;;;;;6341056;22;20168;-93
2023/03/13 16:13:34;;;;;;;5.57;3.97;;;12.90;1.00;;;;;;6340688;22;20174;-93
2023/03/13 16:16:02;;;;;;;8.10;4.97;;;12.90;1.00;;;;;;6340290;22;20194;-96
2023/03/13 16:18:29;;;;;;;5.37;3.93;;;12.90;1.00;;;;;;6338620;22;20622;-92
2023/03/13 16:20:56;;;;;;;5.47;3.97;;;12.80;1.00;;;;;;6339281;22;20489;-91
2023/03/13 16:23:22;;;;;;;6.13;4.30;;;12.70;99.90;;;;;;6338739;22;20685;-91
2023/03/13 16:25:49;;;;;;;6.07;4.30;;;12.70;99.90;;;;;;6339079;22;20627;-91
2023/03/13 16:28:16;;;;;;;12.13;6.33;;;12.60;99.90;;;;;;6339399;22;20167;-91
2023/03/13 16:30:46;;;;;;;14.80;7.03;;;12.60;99.90;;;;;;6338458;22;20178;-89
2023/03/13 16:33:14;;;;;;;12.13;6.33;;;12.50;99.90;;;;;;6339647;22;20479;-90
2023/03/13 16:35:41;;;;;;;7.47;4.63;;;12.40;99.90;;;;;;6339841;22;20197;-92
2023/03/13 16:38:11;;;;;;;8.73;5.20;;;12.30;99.90;;;;;;6339943;22;20168;-92
2023/03/13 16:40:38;;;;;;;6.33;4.40;;;12.30;1.00;;;;;;6339729;22;20254;-91
2023/03/13 16:43:05;;;;;;;10.17;5.37;;;12.20;1.00;;;;;;6340092;22;20174;-94
2023/03/13 16:45:31;;;;;;;10.97;5.90;;;12.10;1.00;;;;;;6342288;22;20716;-93
2023/03/13 16:47:58;;;;;;;20.50;10.13;;;12.10;1.00;;;;;;6341995;22;20253;-93
2023/03/13 16:50:32;;;;;;;25.57;11.57;;;12.10;1.00;;;;;;6341966;22;20174;-92
2023/03/13 16:52:59;;;;;;;23.87;11.50;;;12.00;21.60;;;;;;6341327;22;20144;-93
2023/03/13 16:55:28;;;;;;;17.43;9.27;;;12.00;7.30;;;;;;6341501;22;20211;-94
2023/03/13 16:57:55;;;;;;;25.10;13.20;;;12.00;72.30;;;;;;6341954;22;20166;-94
2023/03/13 17:00:23;;;;;;;21.73;9.80;;;12.00;70.10;;;;;;6341820;22;20494;-92
2023/03/13 17:02:50;;;;;;;26.03;12.27;;;11.90;92.50;;;;;;6341931;22;20167;-94
2023/03/13 17:05:17;;;;;;;40.13;18.33;;;11.90;99.90;;;;;;6341455;22;20163;-96
2023/03/13 17:07:46;;;;;;;47.63;20.83;;;11.90;99.90;;;;;;6342088;22;20176;-93
2023/03/13 17:10:20;;;;;;;35.67;16.83;;;11.90;59.60;;;;;;6341957;22;20231;-93
2023/03/13 17:12:47;;;;;;;20.30;11.53;;;11.80;1.00;;;;;;6341543;22;20157;-94
2023/03/13 17:15:14;;;;;;;29.80;13.77;;;11.80;1.00;;;;;;6341994;22;20186;-92
2023/03/13 17:17:42;;;;;;;17.73;10.30;;;11.70;19.10;;;;;;6341650;22;20173;-94
2023/03/13 17:20:13;;;;;;;15.47;8.80;;;11.70;29.90;;;;;;6341646;22;20190;-96
2023/03/13 17:22:40;;;;;;;10.50;7.37;;;11.60;99.90;;;;;;6340607;22;20588;-91
2023/03/13 17:25:10;;;;;;;15.47;10.07;;;11.50;65.10;;;;;;6341432;22;20174;-92
2023/03/13 17:27:42;;;;;;;20.90;12.70;;;11.40;99.90;;;;;;6342626;22;20167;-92
2023/03/13 17:30:21;;;;;;;15.80;11.00;;;11.40;99.90;;;;;;6341045;22;20634;-91
2023/03/13 17:32:49;;;;;;;22.73;13.77;;;11.40;99.90;;;;;;6340817;22;20156;-92
2023/03/13 17:35:19;;;;;;;18.67;12.47;;;11.30;99.90;;;;;;6338438;22;20205;-92
2023/03/13 17:37:50;;;;;;;15.10;10.90;;;11.30;99.90;;;;;;6340367;22;20176;-91
2023/03/13 17:40:21;;;;;;;19.70;13.30;;;11.30;99.90;;;;;;6340158;22;20155;-92
2023/03/13 17:42:48;;;;;;;13.90;8.47;;;11.30;1.00;;;;;;6340503;22;20211;-95
2023/03/13 17:45:16;;;;;;;20.57;12.37;;;11.20;1.00;;;;;;6341283;22;20249;-94
2023/03/13 17:47:43;;;;;;;14.63;9.00;;;11.30;1.00;;;;;;6341413;22;20252;-91
2023/03/13 17:50:19;;;;;;;10.57;7.10;;;11.20;1.00;;;;;;6342838;22;20504;-94
2023/03/13 17:52:46;;;;;;;10.67;6.67;;;11.20;52.00;;;;;;6341482;22;20618;-93
2023/03/13 17:55:13;;;;;;;13.57;8.57;;;11.20;99.90;;;;;;6340907;22;20647;-92
2023/03/13 17:57:42;;;;;;;8.43;5.77;;;11.20;99.80;;;;;;6341198;22;20162;-95
2023/03/13 18:00:19;;;;;;;10.20;6.63;;;11.20;99.90;;;;;;6340763;22;20707;-94
2023/03/13 18:02:46;;;;;;;22.57;12.40;;;11.20;99.90;;;;;;6340859;22;20161;-94
2023/03/13 18:05:13;;;;;;;17.93;10.53;;;11.20;79.20;;;;;;6340394;22;20260;-92
2023/03/13 18:07:42;;;;;;;16.23;9.27;;;11.10;99.90;;;;;;6338984;22;20174;-91
2023/03/13 18:10:19;;;;;;;13.33;7.77;;;11.10;99.90;;;;;;6340424;22;20176;-93
2023/03/13 18:12:47;;;;;;;15.73;10.33;;;11.00;99.90;;;;;;6340439;22;20163;-94
2023/03/13 18:15:14;;;;;;;12.27;8.93;;;11.00;99.90;;;;;;6340635;22;20188;-93
2023/03/13 18:17:41;;;;;;;12.80;9.07;;;10.90;99.90;;;;;;6340101;22;20175;-92
2023/03/13 18:20:15;;;;;;;17.33;11.40;;;10.90;99.90;;;;;;6340025;22;20197;-94
2023/03/13 18:22:42;;;;;;;20.97;14.50;;;10.80;1.00;;;;;;6340567;22;20476;-91
2023/03/13 18:25:09;;;;;;;28.53;20.27;;;10.80;1.00;;;;;;6340481;22;20172;-92
2023/03/13 18:27:36;;;;;;;29.60;17.73;;;11.00;1.00;;;;;;6341065;22;20168;-93
2023/03/13 18:30:11;;;;;;;26.60;17.80;;;11.10;1.00;;;;;;6339960;22;20180;-92
2023/03/13 18:32:37;;;;;;;21.10;14.67;;;11.10;1.00;;;;;;6339952;22;20223;-93
2023/03/13 18:35:05;;;;;;;21.47;15.87;;;11.10;99.90;;;;;;6340038;22;20191;-93
2023/03/13 18:37:32;;;;;;;23.67;14.97;;;11.20;99.90;;;;;;6339313;22;20169;-94
2023/03/13 18:40:00;;;;;;;20.10;15.10;;;11.20;99.90;;;;;;6338913;22;20179;-91
2023/03/13 18:42:27;;;;;;;17.00;13.27;;;11.20;99.90;;;;;;6339241;22;20169;-95
2023/03/13 18:44:54;;;;;;;15.40;10.90;;;11.10;99.90;;;;;;6340953;22;20169;-94
2023/03/13 18:47:26;;;;;;;17.50;11.87;;;11.10;1.00;;;;;;6340776;22;20191;-95
2023/03/13 18:49:52;;;;;;;20.90;14.03;;;11.20;1.00;;;;;;6340552;22;20157;-94
2023/03/13 18:52:19;;;;;;;19.53;14.60;;;11.30;1.00;;;;;;6340136;22;20168;-94
2023/03/13 18:54:46;;;;;;;16.77;10.30;;;11.30;99.90;;;;;;6339397;22;20175;-94
2023/03/13 18:57:14;;;;;;;23.70;15.80;;;11.30;99.90;;;;;;6341278;22;20172;-93
2023/03/13 18:59:41;;;;;;;26.97;17.40;;;11.40;99.90;;;;;;6340327;22;20176;-95
2023/03/13 19:02:13;;;;;;;20.97;14.50;;;11.30;99.90;;;;;;6340106;22;20618;-95
2023/03/13 19:04:41;;;;;;;15.80;10.73;;;11.30;99.90;;;;;;6340909;22;20154;-95
2023/03/13 19:07:13;;;;;;;15.03;9.77;;;11.30;99.90;;;;;;6339506;22;20170;-93
2023/03/13 19:09:40;;;;;;;16.40;9.50;;;11.30;99.90;;;;;;6340317;22;20152;-95
2023/03/13 19:12:08;;;;;;;21.50;10.60;;;11.30;99.90;;;;;;6340270;22;20217;-94
2023/03/13 19:14:34;;;;;;;16.93;10.60;;;11.30;99.90;;;;;;6340113;22;20160;-94